Time;durP1;ratioP1;P1;durP2;ratioP2;P2;SDS_P1;SDS_P2;PMS_P1;PMS_P2;Temp;Humidity;BMP_temperature;BMP_pressure;BME280_temperature;BME280_humidity;BME280_pressure;Samples;Min_cycle;Max_cycle;Signal;HPM_P1;HPM_P2
2023/09/21 00:00:20;;;;;;;1.30;0.88;;;;;;;;;;4969103;28;20031;-61
2023/09/21 00:02:54;;;;;;;1.38;0.85;;;;;;;;;;4967742;28;20159;-61
2023/09/21 00:05:23;;;;;;;1.95;0.93;;;;;;;;;;4967210;28;20489;-62
2023/09/21 00:07:57;;;;;;;1.63;0.93;;;;;;;;;;4967092;28;20133;-61
2023/09/21 00:10:23;;;;;;;1.42;1.00;;;;;;;;;;4972281;28;20026;-61
2023/09/21 00:12:50;;;;;;;1.48;0.85;;;;;;;;;;4973096;28;20066;-62
2023/09/21 00:15:17;;;;;;;0.63;0.52;;;;;;;;;;4972279;28;20481;-61
2023/09/21 00:17:48;;;;;;;1.85;0.90;;;;;;;;;;4973013;28;20048;-61
2023/09/21 00:20:23;;;;;;;1.98;1.38;;;;;;;;;;4972480;28;20045;-61
2023/09/21 00:22:53;;;;;;;2.03;1.17;;;;;;;;;;4968313;28;20030;-62
2023/09/21 00:25:21;;;;;;;1.48;0.90;;;;;;;;;;4967608;28;20073;-61
2023/09/21 00:27:47;;;;;;;1.35;0.77;;;;;;;;;;4967753;28;20486;-61
2023/09/21 00:30:14;;;;;;;3.10;0.80;;;;;;;;;;4967592;28;20034;-61
2023/09/21 00:32:41;;;;;;;1.67;1.08;;;;;;;;;;4970739;28;20031;-62
2023/09/21 00:35:11;;;;;;;2.60;1.25;;;;;;;;;;4972728;28;20155;-61
2023/09/21 00:37:39;;;;;;;2.75;0.80;;;;;;;;;;4972552;28;20072;-61
2023/09/21 00:40:25;;;;;;;1.45;1.00;;;;;;;;;;4972428;28;20355;-61
2023/09/21 00:42:52;;;;;;;1.15;0.85;;;;;;;;;;4972508;28;20069;-61
2023/09/21 00:45:22;;;;;;;14.02;1.70;;;;;;;;;;4968276;28;20521;-61
2023/09/21 00:47:52;;;;;;;1.45;1.05;;;;;;;;;;4967147;28;20054;-61
2023/09/21 00:50:22;;;;;;;1.13;0.80;;;;;;;;;;4967117;28;20035;-61
2023/09/21 00:52:52;;;;;;;0.95;0.60;;;;;;;;;;4967491;28;20045;-61
2023/09/21 00:55:24;;;;;;;1.10;0.90;;;;;;;;;;4970630;28;20063;-61
2023/09/21 00:57:52;;;;;;;3.35;1.35;;;;;;;;;;4972238;28;20117;-61
2023/09/21 01:00:18;;;;;;;2.42;1.42;;;;;;;;;;4971866;28;20086;-61
2023/09/21 01:02:49;;;;;;;2.58;1.75;;;;;;;;;;4972344;28;20076;-61
2023/09/21 01:05:16;;;;;;;2.47;1.35;;;;;;;;;;4971842;28;20030;-61
2023/09/21 01:07:43;;;;;;;2.15;1.50;;;;;;;;;;4967546;28;20034;-61
2023/09/21 01:10:11;;;;;;;5.28;1.50;;;;;;;;;;4966830;28;20035;-61
2023/09/21 01:12:38;;;;;;;2.63;1.60;;;;;;;;;;4966594;28;20101;-60
2023/09/21 01:15:08;;;;;;;6.97;1.77;;;;;;;;;;4967152;28;20425;-61
2023/09/21 01:17:35;;;;;;;2.33;1.55;;;;;;;;;;4969741;28;20045;-61
2023/09/21 01:20:13;;;;;;;2.55;1.20;;;;;;;;;;4972184;28;20479;-61
2023/09/21 01:22:40;;;;;;;2.40;1.25;;;;;;;;;;4973458;28;20396;-60
2023/09/21 01:25:07;;;;;;;2.28;1.42;;;;;;;;;;4973203;28;20023;-61
2023/09/21 01:27:34;;;;;;;3.63;2.10;;;;;;;;;;4973316;28;20027;-61
2023/09/21 01:30:01;;;;;;;3.33;1.48;;;;;;;;;;4969583;28;20034;-61
2023/09/21 01:32:27;;;;;;;4.95;2.00;;;;;;;;;;4968163;28;20475;-60
2023/09/21 01:34:54;;;;;;;3.38;1.83;;;;;;;;;;4968028;28;20105;-61
2023/09/21 01:37:21;;;;;;;2.55;1.13;;;;;;;;;;4967951;28;20034;-62
2023/09/21 01:39:48;;;;;;;6.32;1.35;;;;;;;;;;4970469;28;20526;-61
2023/09/21 01:42:15;;;;;;;1.45;1.27;;;;;;;;;;4973022;28;20089;-61
2023/09/21 01:44:42;;;;;;;3.78;1.45;;;;;;;;;;4973053;28;20030;-60
2023/09/21 01:47:08;;;;;;;4.90;1.80;;;;;;;;;;4972464;28;20042;-61
2023/09/21 01:49:35;;;;;;;3.10;1.75;;;;;;;;;;4972784;28;20494;-60
2023/09/21 01:52:02;;;;;;;3.53;1.50;;;;;;;;;;4970418;28;20062;-61
2023/09/21 01:54:28;;;;;;;6.07;1.77;;;;;;;;;;4967854;28;20041;-60
2023/09/21 01:56:55;;;;;;;1.60;1.33;;;;;;;;;;4967792;28;20405;-60
2023/09/21 01:59:22;;;;;;;2.13;1.52;;;;;;;;;;4967877;28;20023;-60
2023/09/21 02:01:51;;;;;;;9.13;2.53;;;;;;;;;;4968875;28;20034;-60
2023/09/21 02:04:17;;;;;;;13.07;1.40;;;;;;;;;;4972985;28;20030;-60
2023/09/21 02:06:44;;;;;;;1.92;1.30;;;;;;;;;;4972576;28;20053;-60
2023/09/21 02:09:14;;;;;;;2.67;1.23;;;;;;;;;;4972618;28;20528;-60
2023/09/21 02:11:44;;;;;;;3.90;1.50;;;;;;;;;;4972890;28;20370;-60
2023/09/21 02:14:11;;;;;;;3.37;1.40;;;;;;;;;;4971408;28;20367;-60
2023/09/21 02:16:38;;;;;;;2.43;1.53;;;;;;;;;;4967194;28;20065;-60
2023/09/21 02:19:07;;;;;;;2.20;1.37;;;;;;;;;;4967517;28;20034;-61
2023/09/21 02:21:34;;;;;;;3.43;1.50;;;;;;;;;;4967482;28;20039;-60
2023/09/21 02:24:01;;;;;;;1.70;1.40;;;;;;;;;;4967826;28;20035;-61
2023/09/21 02:26:28;;;;;;;3.10;2.07;;;;;;;;;;4972284;28;20026;-60
2023/09/21 02:28:55;;;;;;;7.80;3.30;;;;;;;;;;4972697;28;20034;-60
2023/09/21 02:31:22;;;;;;;6.17;2.30;;;;;;;;;;4975366;28;20570;-60
2023/09/21 02:33:49;;;;;;;3.60;1.73;;;;;;;;;;4976165;28;20037;-60
2023/09/21 02:36:19;;;;;;;2.63;1.30;;;;;;;;;;4976340;28;20023;-60
2023/09/21 02:38:46;;;;;;;2.33;1.60;;;;;;;;;;4970658;28;20034;-60
2023/09/21 02:41:13;;;;;;;2.93;1.93;;;;;;;;;;4970927;28;20058;-60
2023/09/21 02:43:41;;;;;;;3.10;1.93;;;;;;;;;;4971118;28;20355;-60
2023/09/21 02:46:07;;;;;;;3.67;1.67;;;;;;;;;;4969583;28;20041;-60
2023/09/21 02:48:34;;;;;;;13.60;2.57;;;;;;;;;;4975039;28;20042;-59
2023/09/21 02:51:04;;;;;;;2.77;1.70;;;;;;;;;;4975764;28;20035;-60
2023/09/21 02:53:31;;;;;;;1.97;0.97;;;;;;;;;;4975881;28;20077;-60
2023/09/21 02:55:59;;;;;;;1.60;1.13;;;;;;;;;;4975910;28;20035;-60
2023/09/21 02:58:26;;;;;;;4.30;2.67;;;;;;;;;;4975953;28;20029;-60
2023/09/21 03:00:53;;;;;;;6.33;1.43;;;;;;;;;;4970967;28;20070;-60
2023/09/21 03:03:21;;;;;;;4.83;2.00;;;;;;;;;;4970577;28;20025;-60
2023/09/21 03:05:49;;;;;;;3.70;2.13;;;;;;;;;;4970545;28;20085;-60
2023/09/21 03:08:16;;;;;;;5.50;1.53;;;;;;;;;;4970265;28;20027;-60
2023/09/21 03:10:49;;;;;;;4.83;2.03;;;;;;;;;;4974356;28;20486;-60
2023/09/21 03:13:20;;;;;;;4.23;1.77;;;;;;;;;;4975661;28;20038;-60
2023/09/21 03:15:47;;;;;;;2.03;1.57;;;;;;;;;;4975432;28;20035;-59
2023/09/21 03:18:18;;;;;;;2.47;1.63;;;;;;;;;;4975468;28;20084;-60
2023/09/21 03:20:45;;;;;;;2.57;1.60;;;;;;;;;;4975124;28;20026;-59
2023/09/21 03:23:13;;;;;;;25.43;2.80;;;;;;;;;;4971225;28;20019;-60
2023/09/21 03:25:41;;;;;;;10.33;1.63;;;;;;;;;;4970010;28;20034;-60
2023/09/21 03:28:13;;;;;;;1.67;1.40;;;;;;;;;;4969922;28;20038;-60
2023/09/21 03:30:47;;;;;;;2.77;1.27;;;;;;;;;;4970193;28;20035;-59
2023/09/21 03:33:15;;;;;;;2.43;1.70;;;;;;;;;;4973643;28;20046;-60
2023/09/21 03:35:42;;;;;;;2.63;1.67;;;;;;;;;;4975441;28;20033;-60
2023/09/21 03:38:12;;;;;;;2.50;1.47;;;;;;;;;;4974881;28;20390;-59
2023/09/21 03:40:39;;;;;;;2.20;1.33;;;;;;;;;;4975043;28;20029;-60
2023/09/21 03:43:12;;;;;;;6.00;2.47;;;;;;;;;;4975140;28;20415;-59
2023/09/21 03:45:40;;;;;;;2.27;1.33;;;;;;;;;;4971113;28;20039;-60
2023/09/21 03:48:08;;;;;;;2.83;1.90;;;;;;;;;;4969847;28;20036;-59
2023/09/21 03:50:35;;;;;;;2.57;1.30;;;;;;;;;;4969768;28;20500;-60
2023/09/21 03:53:05;;;;;;;1.77;1.07;;;;;;;;;;4969563;28;20023;-60
2023/09/21 03:55:32;;;;;;;1.87;1.20;;;;;;;;;;4972775;28;20019;-59
2023/09/21 03:58:00;;;;;;;1.13;0.83;;;;;;;;;;4974943;28;20030;-59
2023/09/21 04:03:00;;;;;;;6.43;2.00;;;;;;;;;;4974700;28;20066;-59
2023/09/21 04:05:31;;;;;;;3.73;1.70;;;;;;;;;;4974845;28;20027;-59
2023/09/21 04:07:58;;;;;;;7.27;1.33;;;;;;;;;;4971415;28;20038;-60
2023/09/21 04:10:25;;;;;;;5.73;1.80;;;;;;;;;;4969148;28;20407;-59
2023/09/21 04:12:55;;;;;;;3.13;1.73;;;;;;;;;;4969329;28;20041;-59
2023/09/21 04:15:25;;;;;;;2.73;1.40;;;;;;;;;;4969173;28;20054;-60
2023/09/21 04:17:52;;;;;;;2.73;1.40;;;;;;;;;;4971803;28;20069;-60
2023/09/21 04:20:19;;;;;;;2.70;2.00;;;;;;;;;;4974391;28;20023;-59
2023/09/21 04:22:47;;;;;;;3.37;1.80;;;;;;;;;;4974239;28;20037;-60
2023/09/21 04:25:16;;;;;;;1.67;1.10;;;;;;;;;;4974390;28;20081;-59
2023/09/21 04:27:44;;;;;;;3.27;1.63;;;;;;;;;;4974124;28;20082;-59
2023/09/21 04:30:14;;;;;;;3.17;1.73;;;;;;;;;;4971739;28;20026;-59
2023/09/21 04:32:42;;;;;;;2.87;1.77;;;;;;;;;;4968967;28;20038;-59
2023/09/21 04:35:09;;;;;;;1.73;1.30;;;;;;;;;;4968684;28;20038;-60
2023/09/21 04:37:38;;;;;;;2.73;1.80;;;;;;;;;;4969148;28;20081;-60
2023/09/21 04:40:05;;;;;;;5.93;2.03;;;;;;;;;;4970644;28;20023;-59
2023/09/21 04:42:32;;;;;;;1.30;1.00;;;;;;;;;;4973863;28;20066;-59
2023/09/21 04:45:00;;;;;;;1.83;1.40;;;;;;;;;;4973825;28;20082;-59
2023/09/21 04:47:27;;;;;;;2.40;1.43;;;;;;;;;;4974153;28;20109;-59
2023/09/21 04:49:54;;;;;;;7.93;2.90;;;;;;;;;;4973770;28;20043;-59
2023/09/21 04:52:21;;;;;;;4.97;1.70;;;;;;;;;;4971601;28;20041;-59
2023/09/21 04:54:51;;;;;;;2.73;1.77;;;;;;;;;;4968341;28;20050;-59
2023/09/21 04:57:19;;;;;;;2.30;1.40;;;;;;;;;;4968488;28;20037;-59
2023/09/21 04:59:46;;;;;;;3.07;1.87;;;;;;;;;;4968486;28;20027;-59
2023/09/21 05:02:13;;;;;;;2.50;1.83;;;;;;;;;;4969404;28;20042;-59
2023/09/21 05:04:40;;;;;;;2.27;1.33;;;;;;;;;;4973604;28;20115;-59
2023/09/21 05:07:09;;;;;;;3.00;1.20;;;;;;;;;;4973494;28;20478;-59
2023/09/21 05:09:36;;;;;;;19.60;2.03;;;;;;;;;;4973380;28;20031;-59
2023/09/21 05:12:05;;;;;;;1.97;1.47;;;;;;;;;;4973574;28;20023;-59
2023/09/21 05:14:32;;;;;;;1.23;0.97;;;;;;;;;;4972319;28;20046;-59
2023/09/21 05:16:58;;;;;;;3.57;2.03;;;;;;;;;;4968156;28;20383;-59
2023/09/21 05:19:26;;;;;;;3.37;2.10;;;;;;;;;;4968317;28;20184;-60
2023/09/21 05:21:56;;;;;;;4.73;2.07;;;;;;;;;;4967926;28;20564;-59
2023/09/21 05:24:25;;;;;;;3.10;1.17;;;;;;;;;;4968248;28;20110;-59
2023/09/21 05:26:52;;;;;;;2.97;1.70;;;;;;;;;;4973181;28;20034;-59
2023/09/21 05:29:23;;;;;;;2.43;1.53;;;;;;;;;;4973026;28;20031;-59
2023/09/21 05:31:50;;;;;;;7.20;2.53;;;;;;;;;;4973160;28;20066;-59
2023/09/21 05:34:17;;;;;;;3.93;2.23;;;;;;;;;;4967584;28;20034;-60
2023/09/21 05:36:54;;;;;;;4.03;2.60;;;;;;;;;;4972571;28;20398;-59
2023/09/21 05:39:20;;;;;;;2.30;1.43;;;;;;;;;;4967762;28;20035;-60
2023/09/21 05:41:48;;;;;;;4.83;2.17;;;;;;;;;;4967737;28;20421;-60
2023/09/21 05:44:14;;;;;;;5.90;2.20;;;;;;;;;;4967808;28;20038;-60
2023/09/21 05:46:41;;;;;;;5.13;2.27;;;;;;;;;;4967835;28;20043;-60
2023/09/21 05:49:09;;;;;;;2.17;1.73;;;;;;;;;;4973043;28;20023;-60
2023/09/21 05:51:36;;;;;;;2.20;1.70;;;;;;;;;;4972694;28;20358;-59
2023/09/21 05:54:03;;;;;;;2.70;1.80;;;;;;;;;;4970551;28;20062;-60
2023/09/21 05:56:30;;;;;;;2.77;2.00;;;;;;;;;;4971228;28;20109;-60
2023/09/21 05:58:59;;;;;;;3.63;1.87;;;;;;;;;;4971784;28;20019;-59
2023/09/21 06:01:31;;;;;;;3.47;1.87;;;;;;;;;;4966528;28;20050;-60
2023/09/21 06:03:59;;;;;;;3.40;1.97;;;;;;;;;;4966230;28;20034;-59
2023/09/21 06:06:30;;;;;;;2.90;1.80;;;;;;;;;;4969472;28;20045;-59
2023/09/21 06:08:57;;;;;;;3.93;2.17;;;;;;;;;;4970416;28;20130;-60
2023/09/21 06:11:29;;;;;;;2.00;1.50;;;;;;;;;;4974640;28;20026;-59
2023/09/21 06:13:55;;;;;;;2.90;1.60;;;;;;;;;;4975261;28;20062;-59
2023/09/21 06:16:22;;;;;;;1.83;1.23;;;;;;;;;;4975264;28;20083;-59
2023/09/21 06:18:49;;;;;;;2.47;1.70;;;;;;;;;;4975171;28;20497;-60
2023/09/21 06:21:16;;;;;;;2.20;1.67;;;;;;;;;;4975272;28;20030;-59
2023/09/21 06:23:44;;;;;;;2.63;1.93;;;;;;;;;;4970450;28;20038;-59
2023/09/21 06:26:18;;;;;;;2.00;1.33;;;;;;;;;;4970208;28;20350;-59
2023/09/21 06:28:48;;;;;;;2.67;2.00;;;;;;;;;;4969639;28;20038;-59
2023/09/21 06:31:15;;;;;;;2.13;1.53;;;;;;;;;;4970037;28;20030;-60
2023/09/21 06:33:42;;;;;;;6.30;1.90;;;;;;;;;;4973689;28;20537;-59
2023/09/21 06:36:15;;;;;;;3.37;1.83;;;;;;;;;;4974469;28;20122;-59
2023/09/21 06:38:44;;;;;;;2.20;1.63;;;;;;;;;;4974985;28;20080;-59
2023/09/21 06:41:11;;;;;;;2.17;1.47;;;;;;;;;;4975130;28;20042;-59
2023/09/21 06:43:38;;;;;;;2.27;1.77;;;;;;;;;;4974861;28;20019;-59
2023/09/21 06:46:08;;;;;;;2.30;1.63;;;;;;;;;;4970444;28;20027;-59
2023/09/21 06:48:34;;;;;;;8.00;1.63;;;;;;;;;;4969839;28;20023;-60
2023/09/21 06:51:01;;;;;;;1.77;1.40;;;;;;;;;;4969782;28;20052;-59
2023/09/21 06:53:29;;;;;;;3.17;1.90;;;;;;;;;;4969425;28;20031;-59
2023/09/21 06:55:56;;;;;;;3.03;2.13;;;;;;;;;;4972284;28;20035;-59
2023/09/21 06:58:23;;;;;;;2.07;1.53;;;;;;;;;;4974432;28;20117;-59
2023/09/21 07:00:49;;;;;;;1.47;1.20;;;;;;;;;;4974652;28;20050;-60
2023/09/21 07:03:17;;;;;;;3.97;2.20;;;;;;;;;;4974097;28;20118;-59
2023/09/21 07:05:48;;;;;;;5.17;2.53;;;;;;;;;;4973896;28;20035;-61
2023/09/21 07:08:15;;;;;;;1.73;1.10;;;;;;;;;;4971010;28;20034;-59
2023/09/21 07:10:43;;;;;;;1.93;1.17;;;;;;;;;;4969281;28;20039;-59
2023/09/21 07:13:10;;;;;;;2.60;1.37;;;;;;;;;;4969205;28;20042;-59
2023/09/21 07:15:38;;;;;;;4.20;1.93;;;;;;;;;;4968361;28;20085;-60
2023/09/21 07:18:05;;;;;;;2.00;1.37;;;;;;;;;;4971692;28;20031;-59
2023/09/21 07:20:33;;;;;;;1.40;0.93;;;;;;;;;;4973670;28;20085;-59
2023/09/21 07:22:59;;;;;;;2.20;1.43;;;;;;;;;;4974399;28;20022;-59
2023/09/21 07:25:27;;;;;;;3.13;1.70;;;;;;;;;;4974010;28;20128;-60
2023/09/21 07:27:54;;;;;;;2.93;1.70;;;;;;;;;;4973995;28;20027;-60
2023/09/21 07:30:22;;;;;;;2.10;1.30;;;;;;;;;;4971614;28;20031;-59
2023/09/21 07:32:49;;;;;;;3.10;1.73;;;;;;;;;;4969046;28;20027;-59
2023/09/21 07:35:15;;;;;;;2.50;1.60;;;;;;;;;;4968808;28;20523;-59
2023/09/21 07:37:46;;;;;;;2.57;1.77;;;;;;;;;;4968612;28;20568;-59
2023/09/21 07:40:16;;;;;;;1.40;1.10;;;;;;;;;;4970438;28;20023;-59
2023/09/21 07:42:48;;;;;;;1.00;0.90;;;;;;;;;;4974911;28;20047;-59
2023/09/21 07:45:15;;;;;;;3.47;2.10;;;;;;;;;;4974767;28;20034;-59
2023/09/21 07:47:45;;;;;;;2.07;1.70;;;;;;;;;;4975069;28;20106;-59
2023/09/21 07:50:12;;;;;;;1.60;0.97;;;;;;;;;;4974964;28;20023;-59
2023/09/21 07:52:39;;;;;;;2.47;1.90;;;;;;;;;;4972585;28;20122;-59
2023/09/21 07:55:08;;;;;;;1.23;1.07;;;;;;;;;;4969162;28;20117;-59
2023/09/21 07:57:39;;;;;;;2.33;1.53;;;;;;;;;;4969533;28;20780;-59
2023/09/21 08:00:09;;;;;;;1.83;1.53;;;;;;;;;;4969631;28;20030;-59
2023/09/21 08:02:36;;;;;;;2.27;1.53;;;;;;;;;;4970897;28;20049;-59
2023/09/21 08:05:04;;;;;;;3.27;1.57;;;;;;;;;;4974591;28;20034;-59
2023/09/21 08:07:32;;;;;;;3.23;1.77;;;;;;;;;;4974723;28;20052;-59
2023/09/21 08:10:01;;;;;;;3.57;1.00;;;;;;;;;;4974527;28;20038;-59
2023/09/21 08:12:28;;;;;;;2.57;1.60;;;;;;;;;;4974650;28;20027;-59
2023/09/21 08:14:54;;;;;;;1.70;0.90;;;;;;;;;;4972325;28;20425;-60
2023/09/21 08:17:21;;;;;;;2.07;1.30;;;;;;;;;;4969479;28;20109;-59
2023/09/21 08:19:48;;;;;;;3.50;1.07;;;;;;;;;;4969344;28;20109;-59
2023/09/21 08:22:14;;;;;;;10.07;1.70;;;;;;;;;;4969450;28;20161;-59
2023/09/21 08:24:41;;;;;;;3.23;2.00;;;;;;;;;;4969706;28;20422;-59
2023/09/21 08:27:10;;;;;;;2.90;1.93;;;;;;;;;;4974064;28;20027;-59
2023/09/21 08:29:37;;;;;;;5.50;1.57;;;;;;;;;;4973410;28;20019;-59
2023/09/21 08:32:04;;;;;;;2.93;1.60;;;;;;;;;;4974413;28;20030;-60
2023/09/21 08:34:31;;;;;;;1.83;1.33;;;;;;;;;;4974175;28;20085;-59
2023/09/21 08:36:57;;;;;;;2.90;1.47;;;;;;;;;;4973175;28;20027;-59
2023/09/21 08:39:25;;;;;;;7.90;1.70;;;;;;;;;;4969118;28;20058;-59
2023/09/21 08:41:52;;;;;;;1.87;1.30;;;;;;;;;;4968440;28;20164;-59
2023/09/21 08:44:19;;;;;;;2.70;1.77;;;;;;;;;;4968804;28;20540;-59
2023/09/21 08:46:45;;;;;;;0.97;0.77;;;;;;;;;;4968553;28;20442;-59
2023/09/21 08:49:14;;;;;;;2.27;1.50;;;;;;;;;;4973647;28;20033;-58
2023/09/21 08:51:42;;;;;;;3.73;1.80;;;;;;;;;;4973663;28;20037;-59
2023/09/21 08:54:09;;;;;;;2.83;1.63;;;;;;;;;;4973702;28;20043;-59
2023/09/21 08:56:39;;;;;;;1.47;1.20;;;;;;;;;;4973840;28;20383;-59
2023/09/21 08:59:08;;;;;;;2.43;1.43;;;;;;;;;;4973598;28;20131;-59
2023/09/21 09:01:37;;;;;;;2.30;1.53;;;;;;;;;;4968226;28;20437;-59
2023/09/21 09:04:04;;;;;;;2.43;1.40;;;;;;;;;;4968315;28;20034;-59
2023/09/21 09:06:31;;;;;;;2.70;1.97;;;;;;;;;;4968118;28;20031;-59
2023/09/21 09:08:58;;;;;;;3.57;1.67;;;;;;;;;;4968299;28;20552;-59
2023/09/21 09:11:35;;;;;;;2.27;1.63;;;;;;;;;;4972630;28;20034;-60
2023/09/21 09:14:02;;;;;;;5.77;1.90;;;;;;;;;;4973627;28;20470;-59
2023/09/21 09:16:30;;;;;;;4.10;1.60;;;;;;;;;;4973463;28;20371;-58
2023/09/21 09:19:02;;;;;;;5.00;1.77;;;;;;;;;;4973637;28;20027;-59
2023/09/21 09:21:30;;;;;;;3.70;1.93;;;;;;;;;;4973091;28;20496;-58
2023/09/21 09:23:57;;;;;;;1.63;1.17;;;;;;;;;;4968401;28;20113;-59
2023/09/21 09:26:24;;;;;;;3.70;2.67;;;;;;;;;;4968158;28;20153;-59
2023/09/21 09:28:50;;;;;;;3.30;2.23;;;;;;;;;;4967844;28;20736;-59
2023/09/21 09:31:20;;;;;;;6.53;2.50;;;;;;;;;;4967911;28;20037;-60
2023/09/21 09:33:50;;;;;;;3.10;1.83;;;;;;;;;;4972320;28;20101;-59
2023/09/21 09:36:16;;;;;;;3.93;2.10;;;;;;;;;;4973220;28;20033;-59
2023/09/21 09:38:43;;;;;;;3.50;1.60;;;;;;;;;;4972835;28;20102;-59
2023/09/21 09:41:14;;;;;;;3.23;2.33;;;;;;;;;;4973228;28;20079;-59
2023/09/21 09:43:42;;;;;;;2.40;1.87;;;;;;;;;;4973159;28;20113;-59
2023/09/21 09:46:12;;;;;;;3.63;2.23;;;;;;;;;;4968355;28;20041;-59
2023/09/21 09:48:43;;;;;;;4.20;2.47;;;;;;;;;;4967545;28;20033;-60
2023/09/21 09:51:11;;;;;;;2.93;1.67;;;;;;;;;;4967889;28;20062;-59
2023/09/21 09:53:40;;;;;;;3.50;1.77;;;;;;;;;;4967480;28;20116;-59
2023/09/21 09:56:10;;;;;;;3.40;1.97;;;;;;;;;;4971528;28;20047;-59
2023/09/21 09:58:43;;;;;;;1.57;1.43;;;;;;;;;;4972761;28;20041;-59
2023/09/21 10:01:12;;;;;;;2.57;1.87;;;;;;;;;;4972737;28;20490;-59
2023/09/21 10:03:40;;;;;;;2.40;2.00;;;;;;;;;;4972915;28;20467;-59
2023/09/21 10:06:09;;;;;;;2.30;1.73;;;;;;;;;;4973144;28;20019;-59
2023/09/21 10:08:39;;;;;;;13.60;1.97;;;;;;;;;;4967849;28;20031;-60
2023/09/21 10:11:10;;;;;;;2.53;1.83;;;;;;;;;;4967593;28;20025;-59
2023/09/21 10:13:37;;;;;;;3.00;1.90;;;;;;;;;;4967671;28;20106;-60
2023/09/21 10:16:05;;;;;;;6.57;2.27;;;;;;;;;;4967538;28;20034;-59
2023/09/21 10:18:40;;;;;;;4.67;2.00;;;;;;;;;;4971551;28;20381;-59
2023/09/21 10:21:13;;;;;;;3.75;1.98;;;;;;;;;;4972524;28;20046;-59
2023/09/21 10:24:00;;;;;;;2.17;1.73;;;;;;;;;;4972472;28;20031;-60
2023/09/21 10:26:27;;;;;;;3.30;2.13;;;;;;;;;;4972821;28;20027;-59
2023/09/21 10:28:54;;;;;;;2.03;1.50;;;;;;;;;;4972912;28;20386;-59
2023/09/21 10:31:25;;;;;;;3.23;2.13;;;;;;;;;;4967583;28;20037;-59
2023/09/21 10:33:51;;;;;;;4.30;2.70;;;;;;;;;;4967183;28;20435;-59
2023/09/21 10:36:27;;;;;;;4.93;2.53;;;;;;;;;;4967503;28;20042;-59
2023/09/21 10:39:26;;;;;;;3.77;2.37;;;;;;;;;;4967238;28;20057;-59
2023/09/21 10:41:54;;;;;;;3.83;2.57;;;;;;;;;;4961169;28;20076;-59
2023/09/21 10:44:39;;;;;;;6.83;2.00;;;;;;;;;;4972725;28;20490;-59
2023/09/21 10:47:06;;;;;;;4.18;2.60;;;;;;;;;;4972650;28;20031;-59
2023/09/21 10:49:36;;;;;;;3.50;2.87;;;;;;;;;;4972653;28;20055;-59
2023/09/21 10:52:02;;;;;;;3.73;2.53;;;;;;;;;;4973271;28;20034;-59
2023/09/21 10:54:29;;;;;;;3.07;2.20;;;;;;;;;;4970780;28;20053;-59
2023/09/21 10:56:56;;;;;;;3.20;2.60;;;;;;;;;;4970712;28;20441;-59
2023/09/21 10:59:22;;;;;;;2.80;1.87;;;;;;;;;;4970417;28;20478;-59
2023/09/21 11:01:49;;;;;;;10.90;2.30;;;;;;;;;;4970718;28;20113;-59
2023/09/21 11:04:16;;;;;;;2.57;1.93;;;;;;;;;;4975746;28;20058;-59
2023/09/21 11:06:45;;;;;;;3.13;2.13;;;;;;;;;;4975849;28;20030;-60
2023/09/21 11:09:12;;;;;;;2.47;1.80;;;;;;;;;;4975753;28;20486;-59
2023/09/21 11:11:38;;;;;;;3.03;1.93;;;;;;;;;;4975425;28;20093;-59
2023/09/21 11:14:05;;;;;;;2.33;1.63;;;;;;;;;;4975111;28;20097;-59
2023/09/21 11:16:32;;;;;;;3.03;2.07;;;;;;;;;;4970174;28;20535;-59
2023/09/21 11:18:59;;;;;;;2.43;2.00;;;;;;;;;;4970374;28;20813;-59
2023/09/21 11:21:26;;;;;;;11.20;3.23;;;;;;;;;;4970228;28;20042;-59
2023/09/21 11:23:53;;;;;;;4.30;2.80;;;;;;;;;;4970017;28;20033;-59
2023/09/21 11:26:19;;;;;;;5.93;2.40;;;;;;;;;;4974801;28;20441;-59
2023/09/21 11:28:46;;;;;;;3.50;2.13;;;;;;;;;;4975577;28;20047;-59
2023/09/21 11:31:13;;;;;;;2.10;1.63;;;;;;;;;;4975352;28;20019;-59
2023/09/21 11:33:41;;;;;;;5.00;2.20;;;;;;;;;;4974746;28;20031;-60
2023/09/21 11:36:08;;;;;;;3.60;2.40;;;;;;;;;;4975108;28;20039;-59
2023/09/21 11:38:36;;;;;;;3.13;2.00;;;;;;;;;;4970303;28;20031;-59
2023/09/21 11:41:04;;;;;;;2.90;2.00;;;;;;;;;;4970114;28;20041;-59
2023/09/21 11:43:31;;;;;;;2.97;2.13;;;;;;;;;;4969957;28;20026;-59
2023/09/21 11:45:58;;;;;;;10.37;2.47;;;;;;;;;;4969992;28;20038;-59
2023/09/21 11:48:29;;;;;;;3.83;2.90;;;;;;;;;;4973361;28;20161;-59
2023/09/21 11:50:56;;;;;;;4.13;3.07;;;;;;;;;;4974632;28;20089;-59
2023/09/21 11:53:22;;;;;;;3.23;2.27;;;;;;;;;;4975062;28;20070;-59
2023/09/21 11:55:49;;;;;;;5.13;3.07;;;;;;;;;;4974847;28;20043;-60
2023/09/21 11:58:16;;;;;;;4.33;2.97;;;;;;;;;;4974738;28;20481;-59
2023/09/21 12:00:51;;;;;;;6.50;2.90;;;;;;;;;;4970810;28;20027;-59
2023/09/21 12:03:20;;;;;;;4.32;2.65;;;;;;;;;;4968449;28;20106;-59
2023/09/21 12:05:47;;;;;;;5.03;2.93;;;;;;;;;;4969423;28;20117;-59
2023/09/21 12:08:14;;;;;;;3.47;2.53;;;;;;;;;;4969211;28;20023;-59
2023/09/21 12:10:48;;;;;;;4.23;2.37;;;;;;;;;;4972993;28;20054;-58
2023/09/21 12:13:15;;;;;;;4.70;3.17;;;;;;;;;;4974550;28;20034;-59
2023/09/21 12:15:42;;;;;;;3.07;2.20;;;;;;;;;;4974620;28;20478;-59
2023/09/21 12:18:13;;;;;;;8.33;2.97;;;;;;;;;;4974015;28;20034;-59
2023/09/21 12:21:18;;;;;;;4.40;2.63;;;;;;;;;;4974432;28;20023;-58
2023/09/21 12:23:35;;;;;;;3.53;2.20;;;;;;;;;;4966353;28;20443;-59
2023/09/21 12:26:01;;;;;;;6.67;3.17;;;;;;;;;;4969089;28;20031;-59
2023/09/21 12:28:28;;;;;;;3.67;2.63;;;;;;;;;;4969061;28;20046;-59
2023/09/21 12:30:55;;;;;;;6.40;2.73;;;;;;;;;;4968933;28;20023;-59
2023/09/21 12:33:22;;;;;;;7.43;3.57;;;;;;;;;;4972799;28;20031;-59
2023/09/21 12:35:48;;;;;;;3.77;2.50;;;;;;;;;;4973965;28;20080;-59
2023/09/21 12:38:15;;;;;;;6.60;3.03;;;;;;;;;;4974139;28;20441;-59
2023/09/21 12:40:42;;;;;;;8.10;3.23;;;;;;;;;;4973748;28;20033;-59
2023/09/21 12:43:09;;;;;;;12.57;3.70;;;;;;;;;;4974060;28;20026;-59
2023/09/21 12:45:37;;;;;;;11.03;2.80;;;;;;;;;;4970028;28;20035;-59
2023/09/21 12:48:07;;;;;;;6.00;3.03;;;;;;;;;;4968575;28;20035;-60
2023/09/21 12:50:34;;;;;;;9.03;3.47;;;;;;;;;;4968735;28;20035;-59
2023/09/21 12:53:00;;;;;;;7.37;3.23;;;;;;;;;;4981815;28;20117;-59
2023/09/21 12:55:27;;;;;;;4.57;2.53;;;;;;;;;;4990977;28;20171;-59
2023/09/21 12:57:54;;;;;;;2.53;1.97;;;;;;;;;;4993249;28;20034;-59
2023/09/21 13:00:23;;;;;;;3.50;2.40;;;;;;;;;;4993112;28;20041;-58
2023/09/21 13:02:50;;;;;;;5.20;2.87;;;;;;;;;;4993185;28;20523;-59
2023/09/21 13:05:17;;;;;;;4.20;2.97;;;;;;;;;;4992772;28;20053;-58
2023/09/21 13:07:46;;;;;;;5.33;3.63;;;;;;;;;;4989773;28;20033;-59
2023/09/21 13:10:18;;;;;;;15.17;3.60;;;;;;;;;;4987467;28;20481;-59
2023/09/21 13:12:44;;;;;;;7.53;2.97;;;;;;;;;;4987496;28;20045;-59
2023/09/21 13:15:11;;;;;;;6.63;3.43;;;;;;;;;;4987503;28;20081;-59
2023/09/21 13:17:38;;;;;;;5.43;2.90;;;;;;;;;;4989886;28;20026;-59
2023/09/21 13:20:06;;;;;;;4.93;2.63;;;;;;;;;;4993019;28;20062;-59
2023/09/21 13:22:36;;;;;;;5.23;3.10;;;;;;;;;;4992744;28;20038;-59
2023/09/21 13:25:03;;;;;;;4.17;2.33;;;;;;;;;;4992718;28;20022;-59
2023/09/21 13:27:29;;;;;;;6.07;3.63;;;;;;;;;;4992694;28;20080;-59
2023/09/21 13:29:57;;;;;;;13.30;2.40;;;;;;;;;;4977919;28;20027;-59
2023/09/21 13:32:25;;;;;;;3.97;2.40;;;;;;;;;;4968095;28;20035;-60
2023/09/21 13:34:52;;;;;;;8.53;4.23;;;;;;;;;;4967855;28;20026;-59
2023/09/21 13:37:19;;;;;;;7.70;2.97;;;;;;;;;;4968061;28;20097;-59
2023/09/21 13:39:47;;;;;;;3.03;2.20;;;;;;;;;;4971442;28;20041;-61
2023/09/21 13:42:14;;;;;;;4.57;2.70;;;;;;;;;;4977252;28;20101;-60
2023/09/21 13:44:41;;;;;;;3.43;2.23;;;;;;;;;;4981069;28;20041;-60
2023/09/21 13:47:07;;;;;;;10.20;2.30;;;;;;;;;;4973022;28;20027;-59
2023/09/21 13:49:35;;;;;;;4.93;2.77;;;;;;;;;;4973021;28;20493;-60
2023/09/21 13:52:02;;;;;;;3.37;2.10;;;;;;;;;;4986062;28;20125;-60
2023/09/21 13:54:29;;;;;;;12.93;2.63;;;;;;;;;;4987348;28;20029;-60
2023/09/21 13:56:56;;;;;;;1.63;1.30;;;;;;;;;;4987259;28;20387;-60
2023/09/21 13:59:22;;;;;;;2.50;1.60;;;;;;;;;;4973596;28;20084;-60
2023/09/21 14:01:49;;;;;;;2.27;1.50;;;;;;;;;;4971302;28;20113;-60
2023/09/21 14:04:16;;;;;;;8.23;2.87;;;;;;;;;;4992454;28;20132;-59
2023/09/21 14:06:43;;;;;;;4.87;2.60;;;;;;;;;;4992387;28;20039;-60
2023/09/21 14:09:10;;;;;;;2.87;2.13;;;;;;;;;;4992488;28;20026;-60
2023/09/21 14:11:37;;;;;;;11.77;2.47;;;;;;;;;;4992362;28;20031;-60
2023/09/21 14:14:04;;;;;;;3.70;1.83;;;;;;;;;;4990852;28;20026;-60
2023/09/21 14:16:31;;;;;;;2.73;2.13;;;;;;;;;;4984267;28;20053;-60
2023/09/21 14:18:58;;;;;;;3.90;2.47;;;;;;;;;;4967693;28;20385;-60
2023/09/21 14:21:26;;;;;;;2.60;1.67;;;;;;;;;;4967138;28;20034;-60
2023/09/21 14:23:52;;;;;;;3.53;2.10;;;;;;;;;;4967426;28;20468;-60
2023/09/21 14:26:19;;;;;;;4.90;2.13;;;;;;;;;;4973920;28;20030;-60
2023/09/21 14:28:46;;;;;;;3.23;1.93;;;;;;;;;;4976519;28;20070;-60
2023/09/21 14:31:13;;;;;;;6.30;2.10;;;;;;;;;;4977019;28;20030;-60
2023/09/21 14:33:39;;;;;;;8.73;1.80;;;;;;;;;;4976497;28;20041;-60
2023/09/21 14:36:07;;;;;;;2.60;1.87;;;;;;;;;;4976415;28;20101;-60
2023/09/21 14:38:33;;;;;;;2.53;1.60;;;;;;;;;;4970937;28;20039;-60
2023/09/21 14:41:00;;;;;;;14.17;1.70;;;;;;;;;;4970879;28;20090;-60
2023/09/21 14:43:27;;;;;;;2.50;1.87;;;;;;;;;;4971310;28;20023;-60
2023/09/21 14:45:53;;;;;;;2.87;2.00;;;;;;;;;;4970842;28;20553;-60
2023/09/21 14:48:20;;;;;;;2.78;1.27;;;;;;;;;;4975403;28;20034;-60
2023/09/21 14:50:47;;;;;;;3.35;1.92;;;;;;;;;;4976332;28;20031;-60